createdAt,value
2019-02-02T00:00:19.469Z,73.85
2019-02-02T00:00:53.273Z,73.79
2019-02-02T00:01:25.466Z,73.84
2019-02-02T00:01:56.670Z,73.85
2019-02-02T00:02:27.840Z,73.76
2019-02-02T00:02:59.228Z,73.86
2019-02-02T00:03:30.393Z,73.86
2019-02-02T00:04:01.593Z,73.76
2019-02-02T00:04:32.895Z,73.48
2019-02-02T00:05:05.765Z,73.78
2019-02-02T00:05:36.898Z,73.78
2019-02-02T00:06:09.121Z,73.44
2019-02-02T00:06:40.278Z,73.44
2019-02-02T00:07:11.466Z,73.46
2019-02-02T00:07:42.633Z,73.54
2019-02-02T00:08:13.832Z,73.32
2019-02-02T00:08:44.990Z,73.71
2019-02-02T00:09:16.200Z,73.71
2019-02-02T00:09:47.352Z,73.49
2019-02-02T00:10:18.535Z,73.53
2019-02-02T00:10:49.688Z,73.26
2019-02-02T00:11:20.892Z,73.26
2019-02-02T00:11:52.072Z,73.37
2019-02-02T00:12:23.271Z,73.37
2019-02-02T00:12:54.543Z,73.37
2019-02-02T00:13:25.759Z,73.37
2019-02-02T00:13:56.937Z,73.50
2019-02-02T00:14:28.135Z,73.41
2019-02-02T00:14:59.295Z,73.62
2019-02-02T00:15:30.488Z,73.62
2019-02-02T00:16:01.670Z,73.56
2019-02-02T00:16:33.034Z,73.75
2019-02-02T00:17:04.207Z,73.75
2019-02-02T00:17:35.375Z,73.64
2019-02-02T00:18:06.568Z,73.73
2019-02-02T00:18:37.760Z,73.73
2019-02-02T00:19:08.943Z,73.70
2019-02-02T00:19:40.115Z,73.70
2019-02-02T00:20:11.311Z,73.58
2019-02-02T00:20:42.480Z,73.53
2019-02-02T00:21:13.749Z,73.59
2019-02-02T00:21:44.927Z,73.57
2019-02-02T00:22:16.102Z,73.43
2019-02-02T00:22:47.282Z,73.43
2019-02-02T00:23:18.462Z,73.73
2019-02-02T00:23:49.648Z,73.73
2019-02-02T00:24:20.831Z,73.37
2019-02-02T00:24:52.116Z,73.66
2019-02-02T00:25:23.310Z,73.83
2019-02-02T00:25:54.487Z,73.83
2019-02-02T00:26:25.670Z,73.52
2019-02-02T00:26:56.896Z,73.38
2019-02-02T00:27:28.168Z,73.38
2019-02-02T00:27:59.393Z,73.60
2019-02-02T00:28:30.569Z,73.87
2019-02-02T00:29:01.751Z,73.87
2019-02-02T00:29:32.916Z,73.62
2019-02-02T00:30:14.872Z,73.64
2019-02-02T00:30:46.061Z,73.70
2019-02-02T00:31:17.265Z,73.59
2019-02-02T00:31:48.421Z,73.59
2019-02-02T00:32:19.619Z,73.58
2019-02-02T00:32:50.771Z,73.56
2019-02-02T00:33:21.984Z,73.71
2019-02-02T00:33:53.139Z,73.71
2019-02-02T00:34:25.339Z,73.59
2019-02-02T00:34:56.502Z,73.56
2019-02-02T00:35:27.702Z,73.49
2019-02-02T00:35:58.880Z,73.28
2019-02-02T00:36:30.073Z,73.28
2019-02-02T00:37:01.239Z,73.39
2019-02-02T00:37:32.490Z,73.35
2019-02-02T00:38:03.643Z,73.35
2019-02-02T00:38:34.858Z,73.47
2019-02-02T00:39:07.321Z,73.33
2019-02-02T00:39:38.514Z,73.26
2019-02-02T00:40:18.531Z,73.32
2019-02-02T00:40:49.767Z,73.37
2019-02-02T00:41:20.934Z,73.37
2019-02-02T00:41:52.347Z,73.48
2019-02-02T00:42:23.534Z,73.69
2019-02-02T00:42:54.746Z,73.69
2019-02-02T00:43:25.924Z,73.58
2019-02-02T00:43:57.115Z,73.60
2019-02-02T00:44:28.347Z,73.60
2019-02-02T00:44:59.563Z,73.60
2019-02-02T00:45:30.838Z,73.66
2019-02-02T00:46:02.016Z,73.92
2019-02-02T00:46:33.187Z,73.92
2019-02-02T00:47:04.476Z,73.45
2019-02-02T00:47:35.662Z,73.45
2019-02-02T00:48:06.856Z,73.63
2019-02-02T00:48:38.041Z,73.63
2019-02-02T00:49:09.223Z,73.68
2019-02-02T00:49:40.400Z,73.70
2019-02-02T00:50:13.537Z,73.72
2019-02-02T00:50:44.711Z,73.72
2019-02-02T00:51:15.879Z,73.78
2019-02-02T00:51:47.052Z,73.78
2019-02-02T00:52:18.230Z,73.80
2019-02-02T00:52:49.429Z,73.47
2019-02-02T00:53:20.613Z,73.52
2019-02-02T00:53:51.780Z,73.52
2019-02-02T00:54:22.956Z,73.71
2019-02-02T00:54:54.134Z,73.54
2019-02-02T00:55:25.316Z,73.54
2019-02-02T00:55:56.517Z,73.72
2019-02-02T00:56:27.755Z,73.78
2019-02-02T00:56:58.932Z,74.02
2019-02-02T00:57:30.130Z,74.02
2019-02-02T00:58:01.275Z,73.78
2019-02-02T00:58:32.477Z,73.68
2019-02-02T00:59:03.637Z,73.79
2019-02-02T00:59:34.848Z,73.83
2019-02-02T01:00:11.502Z,73.84
2019-02-02T01:00:42.753Z,74.06
2019-02-02T01:01:13.917Z,73.90
2019-02-02T01:01:45.121Z,73.90
2019-02-02T01:02:16.293Z,73.99
2019-02-02T01:02:47.485Z,73.52
2019-02-02T01:03:18.644Z,73.52
2019-02-02T01:03:49.839Z,73.72
2019-02-02T01:04:21.001Z,73.73
2019-02-02T01:04:52.235Z,73.78
2019-02-02T01:05:23.402Z,73.83
2019-02-02T01:05:54.587Z,73.84
2019-02-02T01:06:25.732Z,73.81
2019-02-02T01:06:56.955Z,73.83
2019-02-02T01:07:28.100Z,73.86
2019-02-02T01:07:59.402Z,74.09
2019-02-02T01:08:30.565Z,74.00
2019-02-02T01:09:03.672Z,74.00
2019-02-02T01:09:35.218Z,73.84
2019-02-02T01:10:12.026Z,73.76
2019-02-02T01:10:43.186Z,73.76
2019-02-02T01:11:14.386Z,73.80
2019-02-02T01:11:45.585Z,73.68
2019-02-02T01:12:16.752Z,73.67
2019-02-02T01:12:47.924Z,73.66
2019-02-02T01:13:19.099Z,73.69
2019-02-02T01:13:50.282Z,73.47
2019-02-02T01:14:21.468Z,73.55
2019-02-02T01:14:52.646Z,73.55
2019-02-02T01:15:23.844Z,73.96
2019-02-02T01:15:55.016Z,73.96
2019-02-02T01:16:26.283Z,73.84
2019-02-02T01:16:57.477Z,73.80
2019-02-02T01:17:28.699Z,74.04
2019-02-02T01:18:00.016Z,74.04
2019-02-02T01:18:31.159Z,73.97
2019-02-02T01:19:02.357Z,73.96
2019-02-02T01:19:33.519Z,73.95
2019-02-02T01:20:08.527Z,73.95
2019-02-02T01:20:39.692Z,73.91
2019-02-02T01:21:10.893Z,73.89
2019-02-02T01:21:42.065Z,74.04
2019-02-02T01:22:13.269Z,74.04
2019-02-02T01:22:44.431Z,73.97
2019-02-02T01:23:15.639Z,74.18
2019-02-02T01:23:46.804Z,74.09
2019-02-02T01:24:17.992Z,74.09
2019-02-02T01:24:49.189Z,74.02
2019-02-02T01:25:20.444Z,73.94
2019-02-02T01:25:51.610Z,74.15
2019-02-02T01:26:22.830Z,74.05
2019-02-02T01:26:54.020Z,73.89
2019-02-02T01:27:25.261Z,73.89
2019-02-02T01:28:04.931Z,73.93
2019-02-02T01:28:29.794Z,74.14
2019-02-02T01:29:01.055Z,73.74
2019-02-02T01:29:32.479Z,73.74
2019-02-02T01:30:09.128Z,73.71
2019-02-02T01:30:40.375Z,73.70
2019-02-02T01:31:11.758Z,73.70
2019-02-02T01:31:44.152Z,73.91
2019-02-02T01:32:15.358Z,73.93
2019-02-02T01:32:46.517Z,73.95
2019-02-02T01:33:17.735Z,73.99
2019-02-02T01:33:48.890Z,74.01
2019-02-02T01:34:20.098Z,73.78
2019-02-02T01:34:51.250Z,73.78
2019-02-02T01:35:22.449Z,74.01
2019-02-02T01:35:53.623Z,74.00
2019-02-02T01:36:24.830Z,73.91
2019-02-02T01:36:56.029Z,73.91
2019-02-02T01:37:27.289Z,74.09
2019-02-02T01:37:58.443Z,74.17
2019-02-02T01:38:29.773Z,74.17
2019-02-02T01:39:00.929Z,74.18
2019-02-02T01:39:32.340Z,74.18
2019-02-02T01:40:11.298Z,74.18
2019-02-02T01:40:42.498Z,74.10
2019-02-02T01:41:13.636Z,74.10
2019-02-02T01:41:44.853Z,73.98
2019-02-02T01:42:16.022Z,73.98
2019-02-02T01:42:47.254Z,73.98
2019-02-02T01:43:18.516Z,74.24
2019-02-02T01:43:49.738Z,74.19
2019-02-02T01:44:20.945Z,74.19
2019-02-02T01:44:52.172Z,74.40
2019-02-02T01:45:26.403Z,74.40
2019-02-02T01:45:57.642Z,74.22
2019-02-02T01:46:28.880Z,74.06
2019-02-02T01:47:00.109Z,74.06
2019-02-02T01:47:31.364Z,74.11
2019-02-02T01:48:02.529Z,74.35
2019-02-02T01:48:34.736Z,74.47
2019-02-02T01:49:05.885Z,74.23
2019-02-02T01:49:37.099Z,74.34
2019-02-02T01:50:12.657Z,74.34
2019-02-02T01:50:43.882Z,74.50
2019-02-02T01:51:15.045Z,74.14
2019-02-02T01:51:46.250Z,74.14
2019-02-02T01:52:17.525Z,74.58
2019-02-02T01:52:48.745Z,74.58
2019-02-02T01:53:19.983Z,74.41
2019-02-02T01:53:52.275Z,74.33
2019-02-02T01:54:23.491Z,74.33
2019-02-02T01:54:54.739Z,74.66
2019-02-02T01:55:25.992Z,74.51
2019-02-02T01:55:57.225Z,74.51
2019-02-02T01:56:28.480Z,74.58
2019-02-02T01:57:00.012Z,74.85
2019-02-02T01:57:31.218Z,74.46
2019-02-02T01:58:02.438Z,74.46
2019-02-02T01:58:33.644Z,74.64
2019-02-02T01:59:04.918Z,74.82
2019-02-02T01:59:36.212Z,74.41
2019-02-02T02:00:12.756Z,74.41
2019-02-02T02:00:43.964Z,74.71
2019-02-02T02:01:15.154Z,74.71
2019-02-02T02:01:46.366Z,74.81
2019-02-02T02:02:17.510Z,74.81
2019-02-02T02:02:48.723Z,74.74
2019-02-02T02:03:19.883Z,75.12
2019-02-02T02:03:52.097Z,75.00
2019-02-02T02:04:23.259Z,75.00
2019-02-02T02:04:54.445Z,74.78
2019-02-02T02:05:25.599Z,74.82
2019-02-02T02:05:56.773Z,74.83
2019-02-02T02:06:27.989Z,74.97
2019-02-02T02:06:59.352Z,74.65
2019-02-02T02:07:30.513Z,74.65
2019-02-02T02:08:01.683Z,74.91
2019-02-02T02:08:33.074Z,74.91
2019-02-02T02:09:04.848Z,74.98
2019-02-02T02:09:37.024Z,74.98
2019-02-02T02:10:17.116Z,75.13
2019-02-02T02:10:49.313Z,75.10
2019-02-02T02:11:20.482Z,75.10
2019-02-02T02:11:51.658Z,75.23
2019-02-02T02:12:22.838Z,75.23
2019-02-02T02:12:54.132Z,75.22
2019-02-02T02:13:25.345Z,75.21
2019-02-02T02:13:56.526Z,75.21
2019-02-02T02:14:27.725Z,75.19
2019-02-02T02:14:59.226Z,75.06
2019-02-02T02:15:30.386Z,75.06
2019-02-02T02:16:01.593Z,75.12
2019-02-02T02:16:33.615Z,75.19
2019-02-02T02:17:04.803Z,75.23
2019-02-02T02:17:36.002Z,75.00
2019-02-02T02:18:07.190Z,75.00
2019-02-02T02:18:38.562Z,75.40
2019-02-02T02:19:09.728Z,75.40
2019-02-02T02:19:40.933Z,75.30
2019-02-02T02:20:14.695Z,75.24
2019-02-02T02:20:45.923Z,75.23
2019-02-02T02:21:17.095Z,75.54
2019-02-02T02:21:48.289Z,75.54
2019-02-02T02:22:19.501Z,75.38
2019-02-02T02:22:50.707Z,75.72
2019-02-02T02:23:21.886Z,75.81
2019-02-02T02:23:53.097Z,75.78
2019-02-02T02:24:24.250Z,75.78
2019-02-02T02:24:55.463Z,75.71
2019-02-02T02:25:26.593Z,75.75
2019-02-02T02:25:57.812Z,75.95
2019-02-02T02:26:28.984Z,75.88
2019-02-02T02:27:00.252Z,75.88
2019-02-02T02:27:31.408Z,76.18
2019-02-02T02:28:02.603Z,76.24
2019-02-02T02:28:33.750Z,76.29
2019-02-02T02:29:04.953Z,76.37
2019-02-02T02:29:36.113Z,76.43
2019-02-02T02:30:12.201Z,76.53
2019-02-02T02:30:43.367Z,76.80
2019-02-02T02:31:14.620Z,76.84
2019-02-02T02:31:45.863Z,76.84
2019-02-02T02:32:17.110Z,76.60
2019-02-02T02:32:48.386Z,76.60
2019-02-02T02:33:20.561Z,76.86
2019-02-02T02:33:51.747Z,77.11
2019-02-02T02:34:22.945Z,77.14
2019-02-02T02:34:54.119Z,77.14
2019-02-02T02:35:25.301Z,76.95
2019-02-02T02:35:56.459Z,77.08
2019-02-02T02:36:27.811Z,77.07
2019-02-02T02:36:58.993Z,77.08
2019-02-02T02:37:30.197Z,77.23
2019-02-02T02:38:01.389Z,77.37
2019-02-02T02:38:32.538Z,77.37
2019-02-02T02:39:06.475Z,77.43
2019-02-02T02:39:37.648Z,77.42
2019-02-02T02:40:13.106Z,77.28
2019-02-02T02:40:44.260Z,77.77
2019-02-02T02:41:15.446Z,77.77
2019-02-02T02:41:46.598Z,77.61
2019-02-02T02:42:17.759Z,77.61
2019-02-02T02:42:49.020Z,77.71
2019-02-02T02:43:20.188Z,77.71
2019-02-02T02:43:51.345Z,77.93
2019-02-02T02:44:22.554Z,77.80
2019-02-02T02:44:53.722Z,78.06
2019-02-02T02:45:24.912Z,78.06
2019-02-02T02:45:56.070Z,78.03
2019-02-02T02:46:27.270Z,78.12
2019-02-02T02:46:58.414Z,78.11
2019-02-02T02:47:29.665Z,78.14
2019-02-02T02:48:00.874Z,78.13
2019-02-02T02:48:32.041Z,78.13
2019-02-02T02:49:03.323Z,78.29
2019-02-02T02:49:34.515Z,78.57
2019-02-02T02:50:09.998Z,78.48
2019-02-02T02:50:41.193Z,78.48
2019-02-02T02:51:12.554Z,78.42
2019-02-02T02:51:43.751Z,78.15
2019-02-02T02:52:14.939Z,78.56
2019-02-02T02:52:46.103Z,78.56
2019-02-02T02:53:17.293Z,78.40
2019-02-02T02:53:48.493Z,78.43
2019-02-02T02:54:19.661Z,78.43
2019-02-02T02:54:50.858Z,78.30
2019-02-02T02:55:22.019Z,78.30
2019-02-02T02:55:53.245Z,78.48
2019-02-02T02:56:24.426Z,78.51
2019-02-02T02:56:55.605Z,78.63
2019-02-02T02:57:27.794Z,78.78
2019-02-02T02:57:58.962Z,78.78
2019-02-02T02:58:40.755Z,78.76
2019-02-02T02:59:03.231Z,78.60
2019-02-02T02:59:34.408Z,78.76
2019-02-02T03:00:23.322Z,78.89
2019-02-02T03:00:54.490Z,78.89
2019-02-02T03:01:25.797Z,79.00
2019-02-02T03:01:57.046Z,79.00
2019-02-02T03:02:28.302Z,79.04
2019-02-02T03:02:59.786Z,79.12
2019-02-02T03:03:31.001Z,79.45
2019-02-02T03:04:02.325Z,79.24
2019-02-02T03:04:34.600Z,79.24
2019-02-02T03:05:09.740Z,79.40
2019-02-02T03:05:40.954Z,79.39
2019-02-02T03:06:12.139Z,79.39
2019-02-02T03:06:43.385Z,79.29
2019-02-02T03:07:14.554Z,79.69
2019-02-02T03:07:47.465Z,79.36
2019-02-02T03:08:18.641Z,79.36
2019-02-02T03:08:49.830Z,79.68
2019-02-02T03:09:20.999Z,79.68
2019-02-02T03:09:52.169Z,79.61
2019-02-02T03:10:24.651Z,79.65
2019-02-02T03:10:55.844Z,79.58
2019-02-02T03:11:27.115Z,79.59
2019-02-02T03:11:58.399Z,79.58
2019-02-02T03:12:29.763Z,79.84
2019-02-02T03:13:00.991Z,79.84
2019-02-02T03:13:32.308Z,79.59
2019-02-02T03:14:03.500Z,79.59
2019-02-02T03:14:34.682Z,79.49
2019-02-02T03:15:10.472Z,79.49
2019-02-02T03:15:41.732Z,79.72
2019-02-02T03:16:13.043Z,79.73
2019-02-02T03:16:44.262Z,79.94
2019-02-02T03:17:15.488Z,79.94
2019-02-02T03:17:48.214Z,79.96
2019-02-02T03:18:19.559Z,79.98
2019-02-02T03:18:51.837Z,79.97
2019-02-02T03:19:22.990Z,80.00
2019-02-02T03:19:54.184Z,80.06
2019-02-02T03:20:25.350Z,80.10
2019-02-02T03:20:56.612Z,80.34
2019-02-02T03:21:27.764Z,80.34
2019-02-02T03:21:59.217Z,80.13
2019-02-02T03:22:30.373Z,80.22
2019-02-02T03:23:01.567Z,80.17
2019-02-02T03:23:32.737Z,80.27
2019-02-02T03:24:04.059Z,80.32
2019-02-02T03:24:35.321Z,80.48
2019-02-02T03:25:16.148Z,80.48
2019-02-02T03:25:47.381Z,80.39
2019-02-02T03:26:18.631Z,80.66
2019-02-02T03:26:49.873Z,80.44
2019-02-02T03:27:21.109Z,80.52
2019-02-02T03:27:52.341Z,80.14
2019-02-02T03:28:23.572Z,80.14
2019-02-02T03:28:54.782Z,80.60
2019-02-02T03:29:25.937Z,80.60
2019-02-02T03:29:58.136Z,80.47
2019-02-02T03:30:29.360Z,80.42
2019-02-02T03:31:00.576Z,80.33
2019-02-02T03:31:31.775Z,80.43
2019-02-02T03:32:03.046Z,80.44
2019-02-02T03:32:34.202Z,80.40
2019-02-02T03:33:05.418Z,80.40
2019-02-02T03:33:36.601Z,80.43
2019-02-02T03:34:07.826Z,80.48
2019-02-02T03:34:39.060Z,80.52
2019-02-02T03:35:12.796Z,80.47
2019-02-02T03:35:45.008Z,80.70
2019-02-02T03:36:16.204Z,80.70
2019-02-02T03:36:47.535Z,80.70
2019-02-02T03:37:18.673Z,80.66
2019-02-02T03:37:50.479Z,80.69
2019-02-02T03:38:21.633Z,80.65
2019-02-02T03:38:53.879Z,80.50
2019-02-02T03:39:25.103Z,80.52
2019-02-02T03:39:56.325Z,80.60
2019-02-02T03:40:27.499Z,80.70
2019-02-02T03:40:58.888Z,80.70
2019-02-02T03:41:30.050Z,80.89
2019-02-02T03:42:01.272Z,80.82
2019-02-02T03:42:32.836Z,80.62
2019-02-02T03:43:04.027Z,80.62
2019-02-02T03:43:35.179Z,80.90
2019-02-02T03:44:06.369Z,80.90
2019-02-02T03:44:37.518Z,80.89
2019-02-02T03:45:12.805Z,80.92
2019-02-02T03:45:43.958Z,80.92
2019-02-02T03:46:15.168Z,80.94
2019-02-02T03:46:46.321Z,80.94
2019-02-02T03:47:17.529Z,80.97
2019-02-02T03:47:49.166Z,80.99
2019-02-02T03:48:20.375Z,80.79
2019-02-02T03:48:51.553Z,80.79
2019-02-02T03:49:22.743Z,81.01
2019-02-02T03:49:53.937Z,81.01
2019-02-02T03:50:25.188Z,81.04
2019-02-02T03:50:56.375Z,80.95
2019-02-02T03:51:27.554Z,80.90
2019-02-02T03:51:58.738Z,80.87
2019-02-02T03:52:29.935Z,80.75
2019-02-02T03:53:01.146Z,80.72
2019-02-02T03:53:32.432Z,81.02
2019-02-02T03:54:08.796Z,81.02
2019-02-02T03:54:36.695Z,80.82
2019-02-02T03:55:11.987Z,80.81
2019-02-02T03:55:44.162Z,80.83
2019-02-02T03:56:15.356Z,80.69
2019-02-02T03:56:46.575Z,80.69
2019-02-02T03:57:17.786Z,80.88
2019-02-02T03:57:48.978Z,81.12
2019-02-02T03:58:20.189Z,81.12
2019-02-02T03:58:51.908Z,80.94
2019-02-02T03:59:23.059Z,81.04
2019-02-02T03:59:54.245Z,81.08
2019-02-02T04:00:25.404Z,81.25
2019-02-02T04:00:56.623Z,81.04
2019-02-02T04:01:29.961Z,81.11
2019-02-02T04:02:00.874Z,81.11
2019-02-02T04:02:32.085Z,81.17
2019-02-02T04:03:03.280Z,81.20
2019-02-02T04:03:34.429Z,81.17
2019-02-02T04:04:05.624Z,81.21
2019-02-02T04:04:36.858Z,81.16
2019-02-02T04:05:12.282Z,80.93
2019-02-02T04:05:43.477Z,80.93
2019-02-02T04:06:14.748Z,81.08
2019-02-02T04:06:46.099Z,81.08
2019-02-02T04:07:17.310Z,81.16
2019-02-02T04:07:48.480Z,81.35
2019-02-02T04:08:19.687Z,81.34
2019-02-02T04:08:50.841Z,81.34
2019-02-02T04:09:22.045Z,81.28
2019-02-02T04:09:53.206Z,81.27
2019-02-02T04:10:24.423Z,81.27
2019-02-02T04:10:55.601Z,81.16
2019-02-02T04:11:26.877Z,81.12
2019-02-02T04:11:58.032Z,81.15
2019-02-02T04:12:29.373Z,81.37
2019-02-02T04:13:00.544Z,81.37
2019-02-02T04:13:32.762Z,81.13
2019-02-02T04:14:03.875Z,81.18
2019-02-02T04:14:35.088Z,80.96
2019-02-02T04:15:08.739Z,81.32
2019-02-02T04:15:39.948Z,81.32
2019-02-02T04:16:11.224Z,81.20
2019-02-02T04:16:42.513Z,81.03
2019-02-02T04:17:13.798Z,81.03
2019-02-02T04:17:45.083Z,81.13
2019-02-02T04:18:16.308Z,81.13
2019-02-02T04:18:47.529Z,81.22
2019-02-02T04:19:18.727Z,81.18
2019-02-02T04:19:49.870Z,81.21
2019-02-02T04:20:21.972Z,81.20
2019-02-02T04:20:53.130Z,81.12
2019-02-02T04:21:24.354Z,81.13
2019-02-02T04:21:55.502Z,81.11
2019-02-02T04:22:26.718Z,81.11
2019-02-02T04:22:57.891Z,81.11
2019-02-02T04:23:30.100Z,81.01
2019-02-02T04:24:01.764Z,80.94
2019-02-02T04:24:33.031Z,80.94
2019-02-02T04:25:06.102Z,80.75
2019-02-02T04:25:37.307Z,80.75
2019-02-02T04:26:08.465Z,81.22
2019-02-02T04:26:39.655Z,81.22
2019-02-02T04:27:10.857Z,80.87
2019-02-02T04:27:42.058Z,80.87
2019-02-02T04:28:13.224Z,81.06
2019-02-02T04:28:44.428Z,81.24
2019-02-02T04:29:17.765Z,81.24
2019-02-02T04:29:49.665Z,80.96
2019-02-02T04:30:24.031Z,80.96
2019-02-02T04:30:55.459Z,81.21
2019-02-02T04:31:26.631Z,81.21
2019-02-02T04:31:57.828Z,81.07
2019-02-02T04:32:28.980Z,81.11
2019-02-02T04:33:00.204Z,81.15
2019-02-02T04:33:31.356Z,81.14
2019-02-02T04:34:02.854Z,81.15
2019-02-02T04:34:34.030Z,81.15
2019-02-02T04:35:08.354Z,81.16
2019-02-02T04:35:39.606Z,81.01
2019-02-02T04:36:10.867Z,81.08
2019-02-02T04:36:42.048Z,81.08
2019-02-02T04:37:13.263Z,81.28
2019-02-02T04:37:44.425Z,81.34
2019-02-02T04:38:15.668Z,81.27
2019-02-02T04:38:46.885Z,81.27
2019-02-02T04:39:18.125Z,81.29
2019-02-02T04:39:49.319Z,81.39
2019-02-02T04:40:20.502Z,81.39
2019-02-02T04:40:51.685Z,81.16
2019-02-02T04:41:22.863Z,81.16
2019-02-02T04:41:54.025Z,81.25
2019-02-02T04:42:25.207Z,81.24
2019-02-02T04:42:56.376Z,81.24
2019-02-02T04:43:27.660Z,81.25
2019-02-02T04:43:58.826Z,81.25
2019-02-02T04:44:30.009Z,81.29
2019-02-02T04:45:01.175Z,81.29
2019-02-02T04:45:32.430Z,81.14
2019-02-02T04:46:03.641Z,81.38
2019-02-02T04:46:34.890Z,81.38
2019-02-02T04:47:06.081Z,81.35
2019-02-02T04:47:37.262Z,81.35
2019-02-02T04:48:08.452Z,80.83
2019-02-02T04:48:39.626Z,80.83
2019-02-02T04:49:10.804Z,81.19
2019-02-02T04:49:42.012Z,81.27
2019-02-02T04:50:16.980Z,80.88
2019-02-02T04:50:48.181Z,80.88
2019-02-02T04:51:19.339Z,80.94
2019-02-02T04:51:50.550Z,81.06
2019-02-02T04:52:21.704Z,81.06
2019-02-02T04:52:52.886Z,81.00
2019-02-02T04:53:24.049Z,80.76
2019-02-02T04:53:57.953Z,80.76
2019-02-02T04:54:28.307Z,80.87
2019-02-02T04:54:59.513Z,80.87
2019-02-02T04:55:30.679Z,81.08
2019-02-02T04:56:01.893Z,81.08
2019-02-02T04:56:33.039Z,80.96
2019-02-02T04:57:04.335Z,80.97
2019-02-02T04:57:35.481Z,81.08
2019-02-02T04:58:06.683Z,81.10
2019-02-02T04:58:37.845Z,81.10
2019-02-02T04:59:09.044Z,80.91
2019-02-02T04:59:40.220Z,80.73
2019-02-02T05:00:23.726Z,80.73
2019-02-02T05:00:54.868Z,80.87
2019-02-02T05:01:26.076Z,81.11
2019-02-02T05:01:57.235Z,80.69
2019-02-02T05:02:30.392Z,80.69
2019-02-02T05:03:01.490Z,80.73
2019-02-02T05:03:32.970Z,80.78
2019-02-02T05:04:04.192Z,80.53
2019-02-02T05:04:35.400Z,80.86
2019-02-02T05:05:11.180Z,80.57
2019-02-02T05:05:42.361Z,80.76
2019-02-02T05:06:13.566Z,80.76
2019-02-02T05:06:44.755Z,80.64
2019-02-02T05:07:16.005Z,80.66
2019-02-02T05:07:47.131Z,80.67
2019-02-02T05:08:18.324Z,80.68
2019-02-02T05:08:49.480Z,80.72
2019-02-02T05:09:20.687Z,80.61
2019-02-02T05:09:51.868Z,80.69
2019-02-02T05:10:23.499Z,80.82
2019-02-02T05:10:54.735Z,81.11
2019-02-02T05:11:25.988Z,81.06
2019-02-02T05:11:57.224Z,80.63
2019-02-02T05:12:28.454Z,80.63
2019-02-02T05:13:00.003Z,80.91
2019-02-02T05:13:31.239Z,80.98
2019-02-02T05:14:02.603Z,80.91
2019-02-02T05:14:33.869Z,80.96
2019-02-02T05:15:06.466Z,80.92
2019-02-02T05:15:37.615Z,80.96
2019-02-02T05:16:08.837Z,80.97
2019-02-02T05:16:39.978Z,81.04
2019-02-02T05:17:12.210Z,81.04
2019-02-02T05:17:43.354Z,81.04
2019-02-02T05:18:14.562Z,81.02
2019-02-02T05:18:45.714Z,81.05
2019-02-02T05:19:16.984Z,81.13
2019-02-02T05:19:48.117Z,81.10
2019-02-02T05:20:19.530Z,81.01
2019-02-02T05:20:50.685Z,81.01
2019-02-02T05:21:21.897Z,80.96
2019-02-02T05:21:53.034Z,80.93
2019-02-02T05:22:24.239Z,80.92
2019-02-02T05:22:55.401Z,80.94
2019-02-02T05:23:26.644Z,80.94
2019-02-02T05:23:57.803Z,80.85
2019-02-02T05:24:29.222Z,81.01
2019-02-02T05:25:00.399Z,81.01
2019-02-02T05:25:31.619Z,80.87
2019-02-02T05:26:03.056Z,80.98
2019-02-02T05:26:34.325Z,80.94
2019-02-02T05:27:05.607Z,80.93
2019-02-02T05:27:36.850Z,80.94
2019-02-02T05:28:08.125Z,80.94
2019-02-02T05:28:39.354Z,81.02
2019-02-02T05:29:10.577Z,81.06
2019-02-02T05:29:41.962Z,81.25
2019-02-02T05:30:28.847Z,81.25
2019-02-02T05:31:00.003Z,81.04
2019-02-02T05:31:31.203Z,81.08
2019-02-02T05:32:02.429Z,81.11
2019-02-02T05:32:33.636Z,81.10
2019-02-02T05:33:04.788Z,81.10
2019-02-02T05:33:36.002Z,81.13
2019-02-02T05:34:07.211Z,80.94
2019-02-02T05:34:38.490Z,81.12
2019-02-02T05:35:09.791Z,81.12
2019-02-02T05:35:41.035Z,81.25
2019-02-02T05:36:12.280Z,81.25
2019-02-02T05:36:43.577Z,81.34
2019-02-02T05:37:14.821Z,81.02
2019-02-02T05:37:46.036Z,81.02
2019-02-02T05:38:18.186Z,81.13
2019-02-02T05:38:49.387Z,81.16
2019-02-02T05:39:20.555Z,80.80
2019-02-02T05:39:51.765Z,80.80
2019-02-02T05:40:22.959Z,81.02
2019-02-02T05:40:54.267Z,81.20
2019-02-02T05:41:25.626Z,81.20
2019-02-02T05:41:56.818Z,81.22
2019-02-02T05:42:28.017Z,81.22
2019-02-02T05:42:59.337Z,81.26
2019-02-02T05:43:30.539Z,80.86
2019-02-02T05:44:01.726Z,80.89
2019-02-02T05:44:33.007Z,80.89
2019-02-02T05:45:07.696Z,81.05
2019-02-02T05:45:38.878Z,81.24
2019-02-02T05:46:10.057Z,80.87
2019-02-02T05:46:41.242Z,81.02
2019-02-02T05:47:12.474Z,80.79
2019-02-02T05:47:43.667Z,80.79
2019-02-02T05:48:14.859Z,80.93
2019-02-02T05:48:46.044Z,80.74
2019-02-02T05:49:17.225Z,80.74
2019-02-02T05:49:49.626Z,80.99
2019-02-02T05:50:22.219Z,80.94
2019-02-02T05:50:53.376Z,80.94
2019-02-02T05:51:24.631Z,81.04
2019-02-02T05:51:55.782Z,80.91
2019-02-02T05:52:26.979Z,80.99
2019-02-02T05:52:58.155Z,80.79
2019-02-02T05:53:29.389Z,81.26
2019-02-02T05:54:00.550Z,81.26
2019-02-02T05:54:31.741Z,81.02
2019-02-02T05:55:09.420Z,81.28
2019-02-02T05:55:40.625Z,81.28
2019-02-02T05:56:11.779Z,81.02
2019-02-02T05:56:42.967Z,80.99
2019-02-02T05:57:14.124Z,80.99
2019-02-02T05:57:45.334Z,81.04
2019-02-02T05:58:16.487Z,80.91
2019-02-02T05:58:47.699Z,80.88
2019-02-02T05:59:18.915Z,80.69
2019-02-02T05:59:52.813Z,80.48
2019-02-02T06:00:37.662Z,80.47
2019-02-02T06:01:10.772Z,80.61
2019-02-02T06:01:41.961Z,80.61
2019-02-02T06:02:13.140Z,80.60
2019-02-02T06:02:44.329Z,80.46
2019-02-02T06:03:15.495Z,80.46
2019-02-02T06:03:46.677Z,80.73
2019-02-02T06:04:17.936Z,80.58
2019-02-02T06:04:49.124Z,80.72
2019-02-02T06:05:20.305Z,80.49
2019-02-02T06:05:51.532Z,80.58
2019-02-02T06:06:22.756Z,80.59
2019-02-02T06:06:53.940Z,80.85
2019-02-02T06:07:25.096Z,80.85
2019-02-02T06:07:56.260Z,80.81
2019-02-02T06:08:27.414Z,80.81
2019-02-02T06:08:58.597Z,80.69
2019-02-02T06:09:29.740Z,80.72
2019-02-02T06:10:00.895Z,80.72
2019-02-02T06:10:32.337Z,80.74
2019-02-02T06:11:03.707Z,80.69
2019-02-02T06:11:34.865Z,80.46
2019-02-02T06:12:06.075Z,80.73
2019-02-02T06:12:37.225Z,80.73
2019-02-02T06:13:08.441Z,80.70
2019-02-02T06:13:39.597Z,80.70
2019-02-02T06:14:10.811Z,80.59
2019-02-02T06:14:42.066Z,80.73
2019-02-02T06:15:13.277Z,80.73
2019-02-02T06:15:44.486Z,80.66
2019-02-02T06:16:15.670Z,80.82
2019-02-02T06:16:46.856Z,80.82
2019-02-02T06:17:18.131Z,80.64
2019-02-02T06:17:49.363Z,80.48
2019-02-02T06:18:20.630Z,80.57
2019-02-02T06:18:51.880Z,80.57
2019-02-02T06:19:23.086Z,80.58
2019-02-02T06:19:54.342Z,80.59
2019-02-02T06:20:25.571Z,80.48
2019-02-02T06:20:56.775Z,80.41
2019-02-02T06:21:27.938Z,80.53
2019-02-02T06:21:59.350Z,80.53
2019-02-02T06:22:30.486Z,80.62
2019-02-02T06:23:01.684Z,80.64
2019-02-02T06:23:32.833Z,80.85
2019-02-02T06:24:04.042Z,80.85
2019-02-02T06:24:35.204Z,80.45
2019-02-02T06:25:10.121Z,80.45
2019-02-02T06:25:41.276Z,80.68
2019-02-02T06:26:12.487Z,80.68
2019-02-02T06:26:43.660Z,80.51
2019-02-02T06:27:14.848Z,80.55
2019-02-02T06:27:46.015Z,80.61
2019-02-02T06:28:17.225Z,80.61
2019-02-02T06:28:48.375Z,80.60
2019-02-02T06:29:19.607Z,80.55
2019-02-02T06:29:50.765Z,80.43
2019-02-02T06:30:24.076Z,80.59
2019-02-02T06:30:55.239Z,80.55
2019-02-02T06:31:26.421Z,80.51
2019-02-02T06:31:57.583Z,80.49
2019-02-02T06:32:28.783Z,80.43
2019-02-02T06:32:59.952Z,80.34
2019-02-02T06:33:31.147Z,80.34
2019-02-02T06:34:02.467Z,80.41
2019-02-02T06:34:33.780Z,80.45
2019-02-02T06:35:08.884Z,80.67
2019-02-02T06:35:40.143Z,80.22
2019-02-02T06:36:11.310Z,80.22
2019-02-02T06:36:42.562Z,80.57
2019-02-02T06:37:13.747Z,80.28
2019-02-02T06:37:44.984Z,80.41
2019-02-02T06:38:16.130Z,80.41
2019-02-02T06:38:47.344Z,80.40
2019-02-02T06:39:18.506Z,80.59
2019-02-02T06:39:49.726Z,80.59
2019-02-02T06:40:20.928Z,80.40
2019-02-02T06:40:52.136Z,80.50
2019-02-02T06:41:23.318Z,80.47
2019-02-02T06:41:54.499Z,80.24
2019-02-02T06:42:25.773Z,80.24
2019-02-02T06:42:56.982Z,80.48
2019-02-02T06:43:30.213Z,80.47
2019-02-02T06:44:01.299Z,80.47
2019-02-02T06:44:32.495Z,80.40
2019-02-02T06:45:11.974Z,80.35
2019-02-02T06:45:43.175Z,80.35
2019-02-02T06:46:14.394Z,80.32
2019-02-02T06:46:45.553Z,80.24